Time;durP1;ratioP1;P1;durP2;ratioP2;P2;SDS_P1;SDS_P2;PMS_P1;PMS_P2;Temp;Humidity;BMP_temperature;BMP_pressure;BME280_temperature;BME280_humidity;BME280_pressure;Samples;Min_cycle;Max_cycle;Signal;HPM_P1;HPM_P2
2021/10/18 00:01:45;;;;;;;60.10;22.60;;;;;;;8.37;69.41;99583.98;27257;1216;3028113;-69
2021/10/18 00:04:14;;;;;;;78.60;24.20;;;;;;;8.22;69.76;99588.39;27280;1216;3050494;-66
2021/10/18 00:06:43;;;;;;;73.10;24.80;;;;;;;8.04;70.53;99587.00;27238;1209;3026867;-67
2021/10/18 00:09:12;;;;;;;72.10;24.90;;;;;;;7.92;71.00;99592.45;27302;1216;3052183;-72
2021/10/18 00:11:59;;;;;;;53.20;20.50;;;;;;;7.86;71.46;99595.34;27305;1216;3053138;-71
2021/10/18 00:14:29;;;;;;;54.80;19.40;;;;;;;8.40;69.75;99588.71;27289;1214;3026401;-67
2021/10/18 00:16:58;;;;;;;52.70;18.80;;;;;;;8.87;68.18;99580.98;27252;1216;3026512;-70
2021/10/18 00:19:47;;;;;;;45.60;19.30;;;;;;;8.73;67.70;99580.30;27233;1215;3051531;-70
2021/10/18 00:22:16;;;;;;;44.80;19.00;;;;;;;8.47;68.36;99587.16;27286;1215;3025847;-74
2021/10/18 00:25:05;;;;;;;44.00;19.40;;;;;;;8.15;69.43;99583.63;27228;1216;3050102;-72
2021/10/18 00:27:36;;;;;;;42.30;16.80;;;;;;;8.04;69.58;99585.59;27278;1215;3026158;-68
2021/10/18 00:30:09;;;;;;;42.10;16.40;;;;;;;7.94;69.88;99584.33;27275;1216;3025946;-67
2021/10/18 00:32:41;;;;;;;49.50;20.70;;;;;;;7.78;70.39;99578.10;27285;1214;3026289;-74
2021/10/18 00:35:12;;;;;;;56.90;20.00;;;;;;;7.74;70.77;99582.27;27252;1214;3026342;-68
2021/10/18 00:37:41;;;;;;;76.60;23.80;;;;;;;8.36;69.41;99579.33;27269;1214;3026185;-69
2021/10/18 00:40:10;;;;;;;72.30;22.80;;;;;;;8.65;68.05;99574.06;27216;1216;3055660;-69
2021/10/18 00:42:40;;;;;;;70.10;25.10;;;;;;;8.58;67.63;99577.53;27252;1215;3027107;-68
2021/10/18 00:45:09;;;;;;;60.60;21.00;;;;;;;8.39;68.25;99581.77;27267;1216;3026243;-67
2021/10/18 00:47:38;;;;;;;54.50;19.90;;;;;;;8.33;68.33;99579.29;27203;1216;3055647;-70
2021/10/18 00:50:08;;;;;;;57.60;20.40;;;;;;;8.14;68.96;99581.13;27215;1216;3027354;-71
2021/10/18 00:52:37;;;;;;;53.60;19.70;;;;;;;8.08;68.98;99580.85;27279;1216;3053003;-68
2021/10/18 00:55:07;;;;;;;49.00;18.70;;;;;;;7.86;69.87;99586.24;27208;1216;3027265;-72
2021/10/18 00:57:36;;;;;;;67.30;23.00;;;;;;;7.84;69.85;99581.67;27230;1216;3050895;-70
2021/10/18 01:00:06;;;;;;;38.10;14.50;;;;;;;7.74;70.27;99582.63;27221;1219;3026020;-70
2021/10/18 01:02:36;;;;;;;38.10;14.50;;;;;;;8.35;68.55;99575.73;27196;1216;3050999;-70
2021/10/18 01:05:06;;;;;;;46.80;16.60;;;;;;;8.82;66.50;99572.83;27210;1208;3025926;-72
2021/10/18 01:07:36;;;;;;;40.30;14.60;;;;;;;8.75;65.50;99576.31;27236;1216;3026124;-70
2021/10/18 01:10:05;;;;;;;30.40;12.20;;;;;;;8.49;66.31;99573.45;27262;1214;3027354;-66
2021/10/18 01:12:34;;;;;;;25.40;12.10;;;;;;;8.22;66.85;99575.45;27301;1216;3052022;-71
2021/10/18 01:15:04;;;;;;;31.50;12.10;;;;;;;7.94;67.61;99578.20;27310;1215;3026517;-70
2021/10/18 01:17:35;;;;;;;27.70;11.80;;;;;;;7.78;68.08;99578.97;27257;1215;3050192;-69
2021/10/18 01:20:10;;;;;;;25.50;11.30;;;;;;;7.62;68.68;99578.82;27317;1214;3027227;-68
2021/10/18 01:22:39;;;;;;;22.70;10.10;;;;;;;7.54;68.82;99576.06;27221;1215;3068076;-71
2021/10/18 01:25:08;;;;;;;20.90;9.20;;;;;;;7.51;68.62;99575.33;27291;1208;3025947;-72
2021/10/18 01:27:38;;;;;;;29.60;11.20;;;;;;;7.38;69.02;99577.14;27318;1215;3050914;-71
2021/10/18 01:30:07;;;;;;;22.30;8.40;;;;;;;7.28;69.56;99578.67;27276;1215;3028940;-66
2021/10/18 01:32:36;;;;;;;21.60;8.00;;;;;;;7.71;68.48;99582.58;27306;1216;3055007;-68
2021/10/18 01:35:07;;;;;;;18.10;7.80;;;;;;;7.88;67.25;99586.16;27228;1216;3026338;-73
2021/10/18 01:37:36;;;;;;;23.00;8.70;;;;;;;7.88;66.72;99584.42;27269;1215;3049844;-72
2021/10/18 01:40:07;;;;;;;21.30;9.40;;;;;;;7.75;67.22;99581.73;27242;1216;3026515;-72
2021/10/18 01:42:36;;;;;;;20.70;8.50;;;;;;;7.50;67.61;99589.15;27268;1214;3026359;-66
2021/10/18 01:45:06;;;;;;;20.30;9.20;;;;;;;7.40;67.84;99583.34;27234;1216;3028053;-69
2021/10/18 01:47:35;;;;;;;16.60;8.20;;;;;;;7.08;69.01;99585.09;27307;1215;3055064;-73
2021/10/18 01:50:16;;;;;;;19.90;8.30;;;;;;;6.96;69.14;99591.35;27235;1216;3026145;-67
2021/10/18 01:52:46;;;;;;;17.90;9.20;;;;;;;6.79;70.10;99591.23;27224;1216;3049750;-73
2021/10/18 01:55:15;;;;;;;21.40;9.50;;;;;;;6.67;70.70;99595.22;27271;1214;3026230;-67
2021/10/18 01:57:45;;;;;;;15.90;7.70;;;;;;;7.33;69.16;99593.06;27280;1215;3026186;-69
2021/10/18 02:00:15;;;;;;;19.00;8.60;;;;;;;7.67;67.17;99596.41;27259;1215;3025923;-67
2021/10/18 02:02:44;;;;;;;17.00;7.00;;;;;;;7.65;66.74;99595.26;27283;1219;3052383;-70
2021/10/18 02:05:13;;;;;;;17.70;7.80;;;;;;;7.58;67.23;99593.33;27259;1216;3026572;-70
2021/10/18 02:07:42;;;;;;;20.10;8.60;;;;;;;7.28;68.15;99602.02;27347;1215;3048966;-69
2021/10/18 02:10:28;;;;;;;18.80;8.90;;;;;;;7.14;68.34;99605.23;27356;1216;3054761;-66
2021/10/18 02:12:58;;;;;;;17.90;8.30;;;;;;;6.97;68.90;99602.14;27306;1216;3025949;-65
2021/10/18 02:15:27;;;;;;;18.00;8.80;;;;;;;6.81;69.39;99602.30;27273;1216;3026329;-67
2021/10/18 02:17:56;;;;;;;20.90;9.20;;;;;;;6.64;69.98;99604.76;27312;1216;3052036;-67
2021/10/18 02:20:25;;;;;;;22.00;7.90;;;;;;;6.48;70.95;99604.21;27311;1215;3025740;-69
2021/10/18 02:22:54;;;;;;;23.00;9.60;;;;;;;6.98;69.73;99607.68;27290;1215;3049047;-69
2021/10/18 02:25:23;;;;;;;25.70;9.90;;;;;;;7.34;68.22;99606.10;27326;1209;3025911;-66
2021/10/18 02:27:52;;;;;;;33.00;11.30;;;;;;;7.33;67.94;99603.02;27271;1216;3055497;-71
2021/10/18 02:30:21;;;;;;;26.00;11.00;;;;;;;7.03;68.51;99607.45;27298;1209;3026095;-72
2021/10/18 02:32:55;;;;;;;24.10;10.70;;;;;;;6.87;69.05;99606.89;27276;1214;3054278;-70
2021/10/18 02:35:24;;;;;;;27.20;9.90;;;;;;;6.70;69.56;99607.31;27260;1216;3026910;-72
2021/10/18 02:37:52;;;;;;;27.30;10.50;;;;;;;6.37;70.92;99606.74;27297;1215;3053273;-64
2021/10/18 02:40:21;;;;;;;20.70;9.60;;;;;;;6.29;71.20;99610.21;27288;1215;3025985;-64
2021/10/18 02:42:50;;;;;;;32.00;13.00;;;;;;;6.14;71.80;99610.96;27272;1215;3047926;-67
2021/10/18 02:45:19;;;;;;;19.30;8.00;;;;;;;6.08;72.20;99613.48;27187;1216;3027263;-72
2021/10/18 02:47:48;;;;;;;23.90;9.60;;;;;;;6.71;70.59;99612.48;27225;1216;3066181;-68
2021/10/18 02:50:17;;;;;;;25.60;9.40;;;;;;;7.09;68.58;99608.23;27269;1216;3026158;-70
2021/10/18 02:52:46;;;;;;;24.80;9.10;;;;;;;7.09;68.48;99608.05;27253;1216;3049828;-70
2021/10/18 02:55:15;;;;;;;20.80;9.10;;;;;;;6.91;68.58;99615.64;27262;1216;3025950;-65
2021/10/18 02:57:45;;;;;;;19.00;8.90;;;;;;;6.75;69.05;99611.09;27260;1215;3054012;-68
2021/10/18 03:00:14;;;;;;;20.90;9.20;;;;;;;6.40;70.15;99613.23;27257;1215;3026078;-68
2021/10/18 03:02:43;;;;;;;22.10;8.30;;;;;;;6.27;70.75;99619.52;27264;1215;3026088;-71
2021/10/18 03:05:12;;;;;;;21.80;8.70;;;;;;;6.13;71.01;99614.84;27300;1216;3054123;-66
2021/10/18 03:07:41;;;;;;;21.90;8.80;;;;;;;5.96;71.78;99617.24;27271;1216;3026041;-67
2021/10/18 03:10:10;;;;;;;14.10;6.60;;;;;;;5.99;71.72;99620.59;27222;1216;3049101;-73
2021/10/18 03:12:39;;;;;;;15.30;6.30;;;;;;;6.58;70.45;99619.46;27271;1216;3026796;-72
2021/10/18 03:15:09;;;;;;;15.70;6.50;;;;;;;6.94;68.74;99621.94;27247;1215;3025838;-67
2021/10/18 03:17:40;;;;;;;16.90;6.50;;;;;;;7.01;67.86;99620.44;27268;1214;3026202;-69
2021/10/18 03:20:10;;;;;;;15.60;7.30;;;;;;;6.86;68.12;99622.84;27260;1214;3027133;-68
2021/10/18 03:22:39;;;;;;;17.70;7.10;;;;;;;6.56;68.72;99624.95;27266;1214;3026120;-70
2021/10/18 03:25:08;;;;;;;18.90;7.50;;;;;;;6.33;69.51;99629.54;27247;1216;3026890;-66
2021/10/18 03:27:37;;;;;;;18.10;7.60;;;;;;;6.13;70.22;99624.96;27319;1215;3026014;-61
2021/10/18 03:30:07;;;;;;;18.30;7.60;;;;;;;6.05;70.50;99624.05;27237;1216;3026183;-66
2021/10/18 03:32:37;;;;;;;13.50;6.60;;;;;;;5.92;70.90;99626.42;27274;1215;3052101;-69
2021/10/18 03:35:06;;;;;;;13.30;5.50;;;;;;;5.82;71.48;99625.94;27280;1215;3026636;-71
2021/10/18 03:37:36;;;;;;;15.40;7.30;;;;;;;6.53;69.90;99621.56;27240;1216;3053848;-70
2021/10/18 03:40:06;;;;;;;19.30;7.30;;;;;;;6.92;67.90;99618.20;27272;1216;3025984;-70
2021/10/18 03:42:37;;;;;;;15.30;7.30;;;;;;;6.94;67.52;99612.02;27253;1215;3047686;-68
2021/10/18 03:45:08;;;;;;;18.90;9.50;;;;;;;6.81;67.61;99614.12;27254;1216;3026209;-66
2021/10/18 03:47:37;;;;;;;26.80;9.90;;;;;;;6.59;68.43;99618.91;27283;1214;3026428;-71
2021/10/18 03:50:07;;;;;;;19.50;7.90;;;;;;;6.42;68.72;99615.94;27207;1218;3026257;-67
2021/10/18 03:52:36;;;;;;;17.30;8.00;;;;;;;6.12;69.57;99620.27;27214;1209;3026086;-64
2021/10/18 03:55:05;;;;;;;27.00;8.80;;;;;;;5.96;70.09;99616.70;27283;1215;3027202;-71
2021/10/18 03:57:34;;;;;;;21.00;8.50;;;;;;;5.85;70.53;99618.19;27241;1216;3058082;-70
2021/10/18 04:00:05;;;;;;;15.40;6.20;;;;;;;5.86;70.75;99623.55;27222;1216;3025973;-69
2021/10/18 04:02:41;;;;;;;14.30;6.30;;;;;;;6.48;69.19;99620.58;27276;1215;3052031;-67
2021/10/18 04:05:10;;;;;;;19.70;6.60;;;;;;;6.82;67.58;99620.87;27268;1214;3026108;-69
2021/10/18 04:07:44;;;;;;;16.20;6.00;;;;;;;6.77;67.22;99627.52;27254;1215;3054742;-72
2021/10/18 04:10:14;;;;;;;24.40;8.10;;;;;;;6.62;67.53;99627.11;27244;1216;3052154;-68
2021/10/18 04:12:44;;;;;;;17.40;8.30;;;;;;;6.31;68.50;99628.08;27286;1215;3025573;-72
2021/10/18 04:15:13;;;;;;;15.70;6.60;;;;;;;6.17;68.86;99630.88;27215;1216;3026314;-66
2021/10/18 04:17:42;;;;;;;13.10;5.80;;;;;;;6.04;69.05;99636.77;27274;1216;3026340;-71
2021/10/18 04:20:11;;;;;;;14.40;5.60;;;;;;;5.96;69.49;99640.69;27275;1215;3054694;-71
2021/10/18 04:22:42;;;;;;;15.10;6.20;;;;;;;5.96;69.14;99642.12;27263;1215;3026051;-69
2021/10/18 04:25:11;;;;;;;19.60;8.40;;;;;;;5.86;69.68;99642.30;27312;1216;3051893;-68
2021/10/18 04:27:40;;;;;;;16.70;7.20;;;;;;;5.91;69.53;99643.12;27240;1216;3028501;-69
2021/10/18 04:30:09;;;;;;;19.40;6.00;;;;;;;6.46;68.40;99647.97;27283;1215;3051712;-67
2021/10/18 04:32:39;;;;;;;20.50;7.60;;;;;;;6.93;66.36;99647.95;27340;1215;3025917;-68
2021/10/18 04:35:08;;;;;;;18.50;7.30;;;;;;;7.15;65.52;99644.70;27267;1214;3028523;-72
2021/10/18 04:37:38;;;;;;;21.40;8.50;;;;;;;6.94;65.57;99649.80;27263;1214;3053388;-72
2021/10/18 04:40:07;;;;;;;23.80;9.00;;;;;;;6.60;66.62;99652.98;27265;1215;3028235;-70
2021/10/18 04:42:36;;;;;;;25.80;9.50;;;;;;;6.48;66.65;99658.52;27264;1215;3050368;-68
2021/10/18 04:45:06;;;;;;;31.70;10.20;;;;;;;6.42;66.88;99656.30;27295;1215;3027367;-68
2021/10/18 04:47:40;;;;;;;36.50;12.10;;;;;;;6.31;67.40;99659.52;27266;1215;3026058;-70
2021/10/18 04:50:09;;;;;;;32.60;12.90;;;;;;;6.25;67.42;99662.38;27276;1215;3055983;-72
2021/10/18 04:52:39;;;;;;;27.80;10.70;;;;;;;6.20;67.66;99664.85;27187;1216;3026335;-66
2021/10/18 04:55:09;;;;;;;20.60;9.50;;;;;;;6.09;67.75;99668.06;27277;1216;3026525;-70
2021/10/18 04:57:58;;;;;;;22.70;8.40;;;;;;;6.10;67.94;99665.75;27263;1216;3057986;-70
2021/10/18 05:00:29;;;;;;;21.40;8.80;;;;;;;6.07;67.93;99669.34;27210;1216;3049592;-69
2021/10/18 05:02:58;;;;;;;25.90;8.80;;;;;;;6.11;67.99;99674.24;27327;1209;3025739;-71
2021/10/18 05:05:27;;;;;;;24.10;9.50;;;;;;;6.73;66.62;99673.86;27300;1215;3026667;-67
2021/10/18 05:08:05;;;;;;;29.20;9.90;;;;;;;7.42;64.67;99669.69;27247;1215;3051765;-69
2021/10/18 05:10:36;;;;;;;27.10;10.40;;;;;;;7.38;63.80;99679.98;27300;1216;3026500;-70
2021/10/18 05:13:06;;;;;;;28.20;10.50;;;;;;;7.18;64.06;99679.09;27272;1216;3026434;-71
2021/10/18 05:15:36;;;;;;;25.50;8.20;;;;;;;7.13;63.89;99680.52;27232;1215;3026556;-71
2021/10/18 05:18:06;;;;;;;14.00;6.90;;;;;;;7.01;64.21;99685.02;27295;1215;3026109;-73
2021/10/18 05:20:36;;;;;;;18.40;7.90;;;;;;;6.91;64.50;99687.04;27254;1216;3026112;-69
2021/10/18 05:23:05;;;;;;;17.20;7.40;;;;;;;6.84;64.50;99689.05;27276;1216;3027940;-71
2021/10/18 05:25:36;;;;;;;15.10;7.10;;;;;;;6.74;64.96;99693.30;27272;1216;3048299;-69
2021/10/18 05:28:05;;;;;;;16.80;7.60;;;;;;;6.71;64.67;99698.47;27221;1216;3026559;-66
2021/10/18 05:30:34;;;;;;;18.30;7.30;;;;;;;6.72;65.00;99692.18;27229;1216;3067240;-72
2021/10/18 05:33:03;;;;;;;24.10;10.90;;;;;;;6.74;64.72;99693.83;27250;1214;3027002;-70
2021/10/18 05:35:32;;;;;;;25.30;9.60;;;;;;;6.76;64.87;99691.65;27289;1216;3054766;-69
2021/10/18 05:38:02;;;;;;;14.60;7.60;;;;;;;6.84;64.35;99692.89;27228;1216;3027953;-68
2021/10/18 05:40:33;;;;;;;13.90;6.50;;;;;;;6.95;63.96;99694.02;27310;1215;3055788;-68
2021/10/18 05:43:01;;;;;;;19.30;7.30;;;;;;;7.04;63.76;99699.02;27203;1216;3026093;-72
2021/10/18 05:45:33;;;;;;;18.00;7.30;;;;;;;7.08;63.24;99698.69;27226;1216;3049103;-68
2021/10/18 05:48:04;;;;;;;19.90;7.10;;;;;;;7.14;62.95;99699.81;27300;1215;3026652;-73
2021/10/18 05:50:34;;;;;;;19.70;8.60;;;;;;;7.19;62.97;99703.61;27233;1216;3026591;-74
2021/10/18 05:53:03;;;;;;;17.90;8.50;;;;;;;7.24;62.37;99709.31;27219;1215;3026202;-73
2021/10/18 05:55:33;;;;;;;19.10;7.70;;;;;;;7.29;62.20;99704.22;27244;1216;3026221;-64
2021/10/18 05:58:04;;;;;;;16.70;7.20;;;;;;;7.39;61.94;99705.36;27219;1216;3028602;-75
2021/10/18 06:00:35;;;;;;;15.90;6.40;;;;;;;7.54;61.44;99704.35;27264;1216;3070026;-71
2021/10/18 06:03:04;;;;;;;17.60;7.00;;;;;;;7.57;61.36;99712.45;27239;1216;3026664;-66
2021/10/18 06:05:46;;;;;;;17.90;6.60;;;;;;;7.66;60.76;99708.70;27212;1216;3026325;-71
2021/10/18 06:08:16;;;;;;;14.10;6.20;;;;;;;7.80;60.58;99712.64;27261;1216;3053654;-67
2021/10/18 06:10:45;;;;;;;15.30;5.80;;;;;;;7.95;60.24;99710.57;27299;1216;3026126;-71
2021/10/18 06:13:14;;;;;;;11.30;5.70;;;;;;;8.03;59.90;99714.89;27313;1214;3053804;-70
2021/10/18 06:15:43;;;;;;;16.50;5.50;;;;;;;8.09;59.64;99718.31;27269;1214;3027078;-68
2021/10/18 06:18:16;;;;;;;14.30;5.50;;;;;;;8.18;59.24;99722.94;27305;1214;3048048;-69
2021/10/18 06:20:48;;;;;;;12.80;6.00;;;;;;;8.18;59.19;99725.53;27223;1216;3054232;-68
2021/10/18 06:23:17;;;;;;;12.20;5.60;;;;;;;8.30;58.68;99729.51;27241;1216;3026629;-65
2021/10/18 06:25:46;;;;;;;15.20;5.30;;;;;;;8.32;58.56;99731.51;27240;1216;3029849;-70
2021/10/18 06:28:15;;;;;;;16.80;6.00;;;;;;;8.43;58.38;99730.88;27218;1216;3025874;-69
2021/10/18 06:30:44;;;;;;;13.50;5.10;;;;;;;8.54;58.20;99733.98;27264;1216;3054819;-72
2021/10/18 06:33:14;;;;;;;13.50;6.10;;;;;;;8.47;57.58;99738.53;27253;1215;3026214;-74
2021/10/18 06:35:43;;;;;;;16.80;6.30;;;;;;;8.46;57.33;99740.85;27271;1215;3055004;-69
2021/10/18 06:38:17;;;;;;;13.30;5.60;;;;;;;8.48;57.38;99740.91;27228;1216;3025945;-70
2021/10/18 06:40:46;;;;;;;16.70;6.70;;;;;;;8.40;57.54;99743.53;27288;1215;3049139;-64
2021/10/18 06:43:16;;;;;;;14.40;5.80;;;;;;;8.48;57.52;99734.29;27305;1215;3026638;-67
2021/10/18 06:45:48;;;;;;;13.10;6.70;;;;;;;8.49;56.97;99737.04;27218;1216;3071362;-73
2021/10/18 06:48:17;;;;;;;13.40;6.20;;;;;;;8.53;56.82;99741.73;27220;1216;3026020;-68
2021/10/18 06:50:48;;;;;;;12.60;6.10;;;;;;;8.45;56.71;99742.80;27262;1214;3026355;-74
2021/10/18 06:53:19;;;;;;;12.10;5.10;;;;;;;8.47;56.49;99738.48;27316;1214;3026480;-70
2021/10/18 06:55:48;;;;;;;17.30;6.90;;;;;;;8.47;56.50;99739.21;27220;1216;3026036;-68
2021/10/18 06:58:17;;;;;;;13.10;5.40;;;;;;;8.60;55.95;99736.02;27227;1216;3026501;-67
2021/10/18 07:00:47;;;;;;;13.40;5.90;;;;;;;8.63;55.71;99743.39;27311;1214;3053599;-73
2021/10/18 07:03:16;;;;;;;12.90;5.90;;;;;;;8.61;55.39;99746.80;27286;1209;3028210;-75
2021/10/18 07:05:46;;;;;;;17.20;5.70;;;;;;;8.66;55.14;99747.06;27191;1216;3026369;-67
2021/10/18 07:08:16;;;;;;;13.50;6.30;;;;;;;8.66;55.32;99747.41;27292;1215;3026528;-72
2021/10/18 07:10:45;;;;;;;11.00;5.30;;;;;;;8.80;55.03;99745.35;27238;1216;3054821;-67
2021/10/18 07:13:14;;;;;;;16.90;6.90;;;;;;;8.78;54.38;99741.27;27278;1214;3027886;-72
2021/10/18 07:15:48;;;;;;;13.80;5.60;;;;;;;8.82;54.36;99740.34;27303;1216;3054393;-67
2021/10/18 07:18:18;;;;;;;9.40;5.30;;;;;;;8.82;54.14;99739.63;27274;1216;3026897;-67
2021/10/18 07:20:47;;;;;;;13.40;5.50;;;;;;;8.88;53.88;99745.13;27265;1216;3028379;-69
2021/10/18 07:23:16;;;;;;;13.10;5.20;;;;;;;8.94;53.67;99743.08;27279;1215;3054518;-69
2021/10/18 07:25:45;;;;;;;13.30;5.00;;;;;;;8.99;53.07;99741.09;27282;1208;3025831;-69
2021/10/18 07:28:16;;;;;;;14.50;5.30;;;;;;;9.05;53.00;99737.14;27258;1214;3054163;-69
2021/10/18 07:30:46;;;;;;;12.90;5.50;;;;;;;9.01;52.67;99736.44;27268;1215;3025717;-68
2021/10/18 07:33:16;;;;;;;14.40;5.70;;;;;;;9.04;52.58;99732.98;27302;1216;3026570;-68
2021/10/18 07:35:45;;;;;;;14.00;5.50;;;;;;;9.03;52.46;99734.27;27305;1209;3027744;-68
2021/10/18 07:38:14;;;;;;;11.40;4.60;;;;;;;9.02;52.67;99736.38;27306;1215;3026063;-69
2021/10/18 07:40:43;;;;;;;11.40;5.10;;;;;;;9.16;52.32;99736.73;27229;1216;3055567;-70
2021/10/18 07:43:13;;;;;;;14.00;4.40;;;;;;;9.28;52.31;99734.05;27270;1215;3028192;-74
2021/10/18 07:45:42;;;;;;;17.90;5.10;;;;;;;9.12;52.05;99732.60;27212;1216;3026321;-67
2021/10/18 07:48:11;;;;;;;12.60;5.30;;;;;;;9.18;52.32;99732.80;27232;1216;3026335;-74
2021/10/18 07:50:40;;;;;;;14.50;5.30;;;;;;;9.44;52.11;99729.04;27238;1216;3048470;-73
2021/10/18 07:53:09;;;;;;;8.30;4.30;;;;;;;9.59;51.41;99721.60;27299;1216;3026375;-71
2021/10/18 07:55:38;;;;;;;11.60;4.80;;;;;;;9.58;50.85;99722.92;27300;1215;3057738;-69
2021/10/18 07:58:07;;;;;;;13.00;5.00;;;;;;;9.53;50.92;99722.29;27220;1216;3026396;-74
2021/10/18 08:00:36;;;;;;;12.00;5.10;;;;;;;9.79;51.10;99723.38;27204;1216;3026337;-70
2021/10/18 08:03:05;;;;;;;13.90;5.00;;;;;;;10.04;50.18;99721.85;27287;1215;3025664;-69
2021/10/18 08:05:35;;;;;;;13.80;5.30;;;;;;;10.19;49.49;99716.99;27261;1215;3051532;-69
2021/10/18 08:08:05;;;;;;;12.20;4.70;;;;;;;10.22;49.20;99716.48;27287;1208;3026058;-73
2021/10/18 08:10:37;;;;;;;11.20;5.10;;;;;;;10.13;48.55;99721.36;27313;1214;3055266;-72
2021/10/18 08:13:06;;;;;;;10.80;5.40;;;;;;;9.96;48.92;99715.80;27263;1215;3026364;-68
2021/10/18 08:15:35;;;;;;;15.60;5.10;;;;;;;9.82;49.14;99717.95;27282;1217;3050998;-74
2021/10/18 08:18:04;;;;;;;14.00;5.30;;;;;;;9.73;50.02;99719.31;27300;1215;3026739;-71
2021/10/18 08:20:33;;;;;;;15.20;5.80;;;;;;;9.77;50.36;99719.84;27305;1216;3026203;-69
2021/10/18 08:23:02;;;;;;;15.80;5.90;;;;;;;9.88;50.47;99714.65;27262;1216;3051503;-74
2021/10/18 08:25:31;;;;;;;11.50;5.40;;;;;;;9.95;50.32;99717.77;27241;1216;3026141;-73
2021/10/18 08:28:00;;;;;;;12.80;5.10;;;;;;;9.86;50.41;99715.13;27269;1216;3051608;-74
2021/10/18 08:30:29;;;;;;;12.30;5.30;;;;;;;9.98;49.68;99712.92;27301;1215;3026448;-73
2021/10/18 08:32:58;;;;;;;10.30;5.30;;;;;;;10.06;48.69;99714.94;27312;1215;3047180;-72
2021/10/18 08:35:27;;;;;;;12.60;4.80;;;;;;;10.05;48.72;99717.23;27269;1215;3028487;-69
2021/10/18 08:44:13;;;;;;;13.20;4.50;;;;;;;10.47;46.48;99707.09;27239;1216;3050981;-68
2021/10/18 08:46:17;;;;;;;14.00;5.40;;;;;;;10.56;46.22;99703.63;27282;1214;3052243;-75
2021/10/18 08:48:49;;;;;;;13.00;4.70;;;;;;;10.34;46.69;99701.35;27355;1216;3025921;-70
2021/10/18 08:51:18;;;;;;;12.60;4.90;;;;;;;10.53;46.90;99703.11;27353;1215;3025997;-74
2021/10/18 08:53:47;;;;;;;13.90;5.40;;;;;;;10.43;47.37;99707.12;27491;1210;3028242;-72
2021/10/18 08:56:17;;;;;;;8.90;4.70;;;;;;;10.28;48.11;99703.56;27275;1215;3055062;-75
2021/10/18 08:58:46;;;;;;;12.40;5.70;;;;;;;10.22;48.52;99700.54;27333;1214;3026754;-72
2021/10/18 09:01:16;;;;;;;12.60;6.30;;;;;;;10.16;48.13;99699.33;27252;1216;3026229;-79
2021/10/18 09:03:45;;;;;;;17.30;6.20;;;;;;;10.07;48.03;99701.91;27261;1215;3026008;-75
2021/10/18 09:06:23;;;;;;;16.40;7.20;;;;;;;10.12;47.34;99697.63;27283;1216;3027947;-70
2021/10/18 09:08:55;;;;;;;16.80;7.70;;;;;;;10.27;46.88;99698.52;27285;1215;3052870;-71
2021/10/18 09:11:28;;;;;;;16.60;7.10;;;;;;;10.47;46.44;99697.80;27319;1215;3026523;-70
2021/10/18 09:13:59;;;;;;;18.40;6.90;;;;;;;10.46;46.08;99695.08;27256;1215;3067448;-72
2021/10/18 09:16:38;;;;;;;18.20;7.50;;;;;;;10.45;46.20;99691.45;27271;1217;3026655;-69
2021/10/18 09:19:09;;;;;;;18.20;7.80;;;;;;;10.41;46.11;99690.41;27298;1215;3050410;-71
2021/10/18 09:21:50;;;;;;;19.80;7.40;;;;;;;10.44;46.39;99689.58;27328;1216;3027950;-73
2021/10/18 09:24:28;;;;;;;12.00;7.00;;;;;;;10.42;46.60;99689.70;27278;1215;3058294;-76
2021/10/18 09:26:58;;;;;;;19.20;8.00;;;;;;;10.27;46.90;99689.80;27252;1216;3049036;-70
2021/10/18 09:29:46;;;;;;;14.20;6.90;;;;;;;10.38;46.45;99685.54;27264;1215;3026218;-69
2021/10/18 09:32:22;;;;;;;15.50;7.70;;;;;;;10.52;46.46;99684.73;27244;1215;3051246;-73
2021/10/18 09:34:52;;;;;;;16.30;7.40;;;;;;;10.78;45.80;99682.38;27226;1215;3070608;-66
2021/10/18 09:37:21;;;;;;;16.10;7.90;;;;;;;10.66;45.73;99689.36;27247;1219;3026808;-72
2021/10/18 09:39:50;;;;;;;18.20;6.80;;;;;;;10.72;45.74;99681.67;27248;1215;3050721;-71
2021/10/18 09:42:19;;;;;;;16.20;8.10;;;;;;;10.51;45.92;99681.81;27242;1215;3026431;-71
2021/10/18 10:51:30;;;;;;;26.70;10.90;;;;;;;10.89;45.27;99627.43;27231;1217;3071083;-66
2021/10/18 10:54:03;;;;;;;30.20;13.70;;;;;;;11.14;44.86;99626.96;27267;1217;3050635;-66
2021/10/18 10:56:47;;;;;;;25.70;11.70;;;;;;;11.34;44.45;99619.31;27308;1217;3055768;-73
2021/10/18 10:59:21;;;;;;;21.20;9.50;;;;;;;11.51;43.22;99621.27;27280;1217;3052505;-74
2021/10/18 11:01:54;;;;;;;18.80;9.60;;;;;;;11.49;42.94;99618.54;27257;1217;3056314;-75
2021/10/18 11:04:44;;;;;;;25.70;10.40;;;;;;;11.79;42.75;99614.59;27233;1217;3026745;-70
2021/10/18 11:07:36;;;;;;;24.40;11.50;;;;;;;11.54;42.77;99616.48;27237;1217;3055115;-76
2021/10/18 11:10:06;;;;;;;26.80;11.90;;;;;;;11.35;43.39;99616.05;27329;1215;3050469;-72
2021/10/18 11:12:40;;;;;;;24.00;11.80;;;;;;;11.33;43.05;99612.16;27221;1215;3026168;-73
2021/10/18 11:15:13;;;;;;;17.70;9.20;;;;;;;11.16;43.28;99611.44;27234;1216;3028083;-75
2021/10/18 11:17:46;;;;;;;23.40;11.50;;;;;;;10.60;43.90;99618.99;27240;1216;3026320;-75
2021/10/18 11:20:17;;;;;;;24.10;9.70;;;;;;;10.49;44.20;99613.09;27252;1217;3026570;-69
2021/10/18 11:22:47;;;;;;;22.60;11.20;;;;;;;10.51;44.06;99611.60;27275;1215;3027340;-72
2021/10/18 11:25:19;;;;;;;25.30;10.80;;;;;;;10.65;43.81;99609.23;27236;1216;3027241;-73
2021/10/18 11:28:02;;;;;;;27.60;11.30;;;;;;;10.75;44.13;99607.08;27293;1215;3026170;-72
2021/10/18 11:30:32;;;;;;;24.60;10.30;;;;;;;10.82;44.03;99612.96;27272;1216;3049040;-71
2021/10/18 11:33:06;;;;;;;16.90;8.40;;;;;;;10.83;43.98;99611.46;27273;1215;3025951;-73
2021/10/18 11:35:35;;;;;;;19.80;9.10;;;;;;;10.56;44.21;99613.05;27249;1215;3048233;-79
2021/10/18 11:38:11;;;;;;;20.30;9.40;;;;;;;10.67;44.00;99610.69;27284;1217;3026087;-76
2021/10/18 11:40:43;;;;;;;14.10;8.90;;;;;;;10.86;43.62;99605.68;27245;1215;3068203;-76
2021/10/18 11:43:14;;;;;;;15.80;8.90;;;;;;;11.03;43.26;99600.10;27259;1216;3026043;-73
2021/10/18 11:45:44;;;;;;;15.70;7.20;;;;;;;10.95;43.36;99599.39;27264;1217;3028139;-71
2021/10/18 11:48:14;;;;;;;17.80;8.40;;;;;;;10.76;43.77;99608.89;27273;1216;3026121;-74
2021/10/18 11:51:04;;;;;;;18.00;9.10;;;;;;;10.80;43.84;99596.73;27303;1217;3026660;-74
2021/10/18 11:53:44;;;;;;;19.90;7.60;;;;;;;10.87;43.80;99599.13;27241;1216;3049643;-72
2021/10/18 11:56:17;;;;;;;19.90;8.30;;;;;;;10.88;43.79;99600.15;27270;1216;3052120;-74
2021/10/18 11:58:46;;;;;;;16.70;7.70;;;;;;;10.58;44.07;99602.09;27356;1217;3026696;-74
2021/10/18 12:01:16;;;;;;;16.00;7.20;;;;;;;10.49;44.62;99602.43;27261;1209;3029130;-74
2021/10/18 12:03:45;;;;;;;13.30;7.60;;;;;;;10.35;45.00;99603.56;27397;1215;3051814;-76
2021/10/18 12:06:14;;;;;;;24.50;7.90;;;;;;;10.32;44.91;99597.64;27344;1210;3026607;-76
2021/10/18 12:08:43;;;;;;;15.40;7.00;;;;;;;10.32;45.01;99597.08;27303;1215;3026014;-75
2021/10/18 12:11:13;;;;;;;14.50;7.30;;;;;;;10.30;45.26;99602.11;27339;1215;3052767;-76
2021/10/18 12:13:45;;;;;;;14.80;7.10;;;;;;;10.29;45.33;99597.95;27347;1216;3026208;-72
2021/10/18 12:16:22;;;;;;;20.20;7.90;;;;;;;10.25;45.38;99595.90;27384;1215;3028162;-71
2021/10/18 12:18:58;;;;;;;17.10;8.30;;;;;;;10.32;45.58;99601.45;27482;1216;3052755;-72
2021/10/18 12:21:36;;;;;;;17.40;7.80;;;;;;;10.39;45.32;99595.83;27450;1216;3050169;-70
2021/10/18 12:24:15;;;;;;;15.50;6.50;;;;;;;10.57;45.02;99597.45;27559;1215;3067829;-72
2021/10/18 12:26:47;;;;;;;18.80;7.60;;;;;;;10.44;44.82;99592.94;27603;1215;3051855;-70
2021/10/18 12:29:17;;;;;;;21.40;8.70;;;;;;;10.53;44.81;99595.91;27568;1215;3026341;-78
2021/10/18 12:31:53;;;;;;;12.90;6.60;;;;;;;10.64;44.77;99600.86;27527;1215;3026274;-71
2021/10/18 12:34:22;;;;;;;19.60;7.60;;;;;;;10.64;44.82;99595.58;27371;1217;3055639;-70
2021/10/18 12:37:12;;;;;;;16.50;7.70;;;;;;;10.57;45.03;99597.77;27369;1215;3026200;-71
2021/10/18 12:39:56;;;;;;;17.60;9.00;;;;;;;10.59;45.04;99593.44;27333;1215;3052839;-69
2021/10/18 12:42:27;;;;;;;13.80;8.10;;;;;;;10.50;45.23;99594.33;27420;1215;3050777;-72
2021/10/18 12:45:04;;;;;;;17.00;8.20;;;;;;;10.53;45.31;99596.29;27295;1215;3027307;-70